Time;durP1;ratioP1;P1;durP2;ratioP2;P2;SDS_P1;SDS_P2;PMS_P1;PMS_P2;Temp;Humidity;BMP_temperature;BMP_pressure;BME280_temperature;BME280_humidity;BME280_pressure;Samples;Min_cycle;Max_cycle;Signal;HPM_P1;HPM_P2
2022/10/08 00:01:49;;;;;;;21.40;15.93;;;;;;;;;;10118126;28;20052;-65
2022/10/08 00:06:43;;;;;;;21.52;17.85;;;;;;;;;;10115563;28;20053;-65
2022/10/08 00:11:39;;;;;;;20.13;17.88;;;;;;;;;;10115624;28;20049;-65
2022/10/08 00:16:34;;;;;;;21.30;19.00;;;;;;;;;;10109601;28;20064;-65
2022/10/08 00:21:33;;;;;;;26.88;20.05;;;;;;;;;;10126749;28;20040;-65
2022/10/08 00:26:28;;;;;;;20.77;18.40;;;;;;;;;;10120557;28;20052;-65
2022/10/08 00:31:27;;;;;;;20.02;17.98;;;;;;;;;;10111837;28;20095;-65
2022/10/08 00:36:23;;;;;;;20.77;18.52;;;;;;;;;;10120129;28;20064;-65
2022/10/08 00:41:22;;;;;;;26.00;18.85;;;;;;;;;;10108690;28;20052;-65
2022/10/08 00:46:37;;;;;;;19.83;17.73;;;;;;;;;;10112533;28;20377;-65
2022/10/08 00:51:32;;;;;;;20.13;18.13;;;;;;;;;;10112265;28;20057;-65
2022/10/08 00:56:26;;;;;;;22.95;17.10;;;;;;;;;;10113210;28;20048;-65
2022/10/08 01:01:20;;;;;;;17.75;15.85;;;;;;;;;;10116221;28;20545;-65
2022/10/08 01:06:26;;;;;;;19.25;16.92;;;;;;;;;;10106734;28;20114;-64
2022/10/08 01:11:43;;;;;;;21.45;19.35;;;;;;;;;;10109742;28;20056;-64
2022/10/08 01:16:45;;;;;;;18.25;16.42;;;;;;;;;;10121445;28;20056;-65
2022/10/08 01:22:00;;;;;;;24.15;20.25;;;;;;;;;;10120442;28;20056;-65
2022/10/08 01:27:01;;;;;;;20.50;17.55;;;;;;;;;;10116137;28;20057;-65
2022/10/08 01:32:06;;;;;;;19.77;17.77;;;;;;;;;;10112520;28;20128;-65
2022/10/08 01:36:59;;;;;;;20.92;17.92;;;;;;;;;;10119034;28;20132;-65
2022/10/08 01:41:55;;;;;;;19.98;17.90;;;;;;;;;;10121671;28;20522;-66
2022/10/08 01:46:49;;;;;;;20.70;18.55;;;;;;;;;;10105509;28;20053;-66
2022/10/08 01:51:54;;;;;;;23.20;18.40;;;;;;;;;;10109656;28;20128;-66
2022/10/08 01:56:48;;;;;;;19.80;17.75;;;;;;;;;;10111033;28;20556;-65
2022/10/08 02:02:14;;;;;;;19.33;17.23;;;;;;;;;;10111951;28;20045;-65
2022/10/08 02:07:09;;;;;;;19.08;17.05;;;;;;;;;;10104054;28;20157;-66
2022/10/08 02:12:04;;;;;;;17.83;16.13;;;;;;;;;;10107735;28;20393;-65
2022/10/08 02:17:20;;;;;;;18.20;15.18;;;;;;;;;;10120093;28;20053;-65
2022/10/08 02:22:16;;;;;;;18.33;16.50;;;;;;;;;;10114755;28;20499;-65
2022/10/08 02:27:11;;;;;;;21.17;16.70;;;;;;;;;;10117010;28;20052;-65
2022/10/08 02:32:35;;;;;;;20.70;17.88;;;;;;;;;;10112383;28;20041;-65
2022/10/08 02:37:34;;;;;;;24.30;19.00;;;;;;;;;;10102056;28;20415;-63
2022/10/08 02:42:30;;;;;;;21.73;19.25;;;;;;;;;;10116989;28;20488;-65
2022/10/08 02:47:26;;;;;;;19.90;17.45;;;;;;;;;;10113704;28;20056;-65
2022/10/08 02:52:20;;;;;;;18.77;15.27;;;;;;;;;;10105544;28;20041;-65
2022/10/08 02:57:27;;;;;;;17.02;15.32;;;;;;;;;;10114090;28;20110;-64
2022/10/08 03:02:30;;;;;;;19.33;16.50;;;;;;;;;;10122714;28;20049;-64
2022/10/08 03:07:31;;;;;;;22.20;17.98;;;;;;;;;;10111225;28;20075;-64
2022/10/08 03:12:32;;;;;;;18.73;16.83;;;;;;;;;;10126774;28;20418;-64
2022/10/08 03:17:30;;;;;;;19.80;17.35;;;;;;;;;;10111048;28;20559;-64
2022/10/08 03:22:23;;;;;;;20.63;18.40;;;;;;;;;;10109672;28;20053;-63
2022/10/08 03:27:18;;;;;;;23.05;19.30;;;;;;;;;;10110103;28;20041;-64
2022/10/08 03:32:11;;;;;;;21.63;19.42;;;;;;;;;;10125650;28;20084;-64
2022/10/08 03:37:05;;;;;;;24.17;19.75;;;;;;;;;;10122199;28;20388;-64
2022/10/08 03:41:59;;;;;;;21.60;18.98;;;;;;;;;;10120298;28;20064;-64
2022/10/08 03:46:57;;;;;;;22.35;19.95;;;;;;;;;;10117093;28;20450;-64
2022/10/08 03:51:50;;;;;;;25.00;22.33;;;;;;;;;;10109628;28;20543;-64
2022/10/08 03:56:44;;;;;;;23.20;19.25;;;;;;;;;;10117298;28;20062;-64
2022/10/08 04:01:37;;;;;;;22.10;19.58;;;;;;;;;;10120033;28;20519;-64
2022/10/08 04:06:32;;;;;;;24.77;20.00;;;;;;;;;;10119575;28;20061;-64
2022/10/08 04:11:26;;;;;;;21.95;19.55;;;;;;;;;;10115716;28;20388;-64
2022/10/08 04:16:20;;;;;;;21.08;18.00;;;;;;;;;;10116804;28;20056;-64
2022/10/08 04:21:16;;;;;;;28.70;18.40;;;;;;;;;;10114254;28;20408;-64
2022/10/08 04:26:12;;;;;;;23.52;18.33;;;;;;;;;;10117604;28;20385;-64
2022/10/08 04:31:07;;;;;;;21.63;18.02;;;;;;;;;;10119553;28;20044;-64
2022/10/08 04:36:00;;;;;;;19.13;17.13;;;;;;;;;;10108912;28;20057;-64
2022/10/08 04:41:11;;;;;;;34.08;18.45;;;;;;;;;;10102657;28;20056;-64
2022/10/08 04:46:07;;;;;;;18.45;16.45;;;;;;;;;;10129314;28;20048;-64
2022/10/08 04:51:01;;;;;;;17.48;15.68;;;;;;;;;;10107099;28;20098;-64
2022/10/08 04:56:18;;;;;;;19.98;15.65;;;;;;;;;;10108876;28;20418;-64
2022/10/08 05:01:15;;;;;;;18.65;16.73;;;;;;;;;;10113404;28;20136;-65
2022/10/08 05:06:09;;;;;;;22.80;16.60;;;;;;;;;;10109178;28;20064;-65
2022/10/08 05:11:03;;;;;;;21.52;15.80;;;;;;;;;;10113850;28;20041;-64
2022/10/08 05:16:24;;;;;;;19.17;14.23;;;;;;;;;;10105071;28;20061;-64
2022/10/08 05:21:20;;;;;;;15.10;13.52;;;;;;;;;;10111308;28;20048;-64
2022/10/08 05:26:20;;;;;;;17.10;14.77;;;;;;;;;;10113772;28;20053;-63
2022/10/08 05:31:36;;;;;;;24.05;15.15;;;;;;;;;;10118064;28;20094;-63
2022/10/08 05:36:30;;;;;;;18.30;14.32;;;;;;;;;;10116101;28;20056;-64
2022/10/08 05:41:26;;;;;;;15.43;13.30;;;;;;;;;;10115016;28;20511;-64
2022/10/08 05:46:21;;;;;;;17.65;13.30;;;;;;;;;;10112156;28;20052;-64
2022/10/08 05:51:16;;;;;;;16.73;12.45;;;;;;;;;;10108991;28;20061;-64
2022/10/08 05:56:10;;;;;;;14.00;11.52;;;;;;;;;;10109331;28;20072;-64
2022/10/08 06:01:27;;;;;;;13.15;11.82;;;;;;;;;;10119267;28;20059;-64
2022/10/08 06:06:21;;;;;;;17.63;14.35;;;;;;;;;;10112882;28;20045;-64
2022/10/08 06:11:15;;;;;;;15.10;12.77;;;;;;;;;;10114710;28;20052;-64
2022/10/08 06:16:10;;;;;;;22.55;14.18;;;;;;;;;;10114074;28;20080;-64
2022/10/08 06:21:12;;;;;;;14.90;13.32;;;;;;;;;;10113449;28;20078;-65
2022/10/08 06:26:08;;;;;;;19.42;13.15;;;;;;;;;;10113824;28;20135;-64
2022/10/08 06:31:01;;;;;;;15.00;13.50;;;;;;;;;;10113285;28;20557;-64
2022/10/08 06:35:54;;;;;;;17.80;12.60;;;;;;;;;;10117103;28;20049;-64
2022/10/08 06:40:48;;;;;;;13.85;12.32;;;;;;;;;;10116787;28;20045;-64
2022/10/08 06:45:43;;;;;;;14.50;12.82;;;;;;;;;;10117291;28;20505;-63
2022/10/08 06:50:37;;;;;;;14.27;12.88;;;;;;;;;;10114573;28;20106;-63
2022/10/08 06:55:32;;;;;;;18.38;14.15;;;;;;;;;;10111841;28;20420;-63
2022/10/08 07:00:26;;;;;;;17.95;13.60;;;;;;;;;;10107791;28;20049;-62
2022/10/08 07:05:20;;;;;;;17.10;13.38;;;;;;;;;;10122279;28;20059;-62
2022/10/08 07:10:14;;;;;;;15.60;12.23;;;;;;;;;;10113190;28;20045;-62
2022/10/08 07:15:10;;;;;;;19.35;12.02;;;;;;;;;;10117540;28;20453;-67
2022/10/08 07:20:06;;;;;;;16.10;12.55;;;;;;;;;;10121315;28;20052;-63
2022/10/08 07:25:00;;;;;;;14.65;12.98;;;;;;;;;;10117922;28;20049;-64
2022/10/08 07:29:54;;;;;;;18.30;10.70;;;;;;;;;;10115153;28;20045;-65
2022/10/08 07:34:48;;;;;;;12.10;9.43;;;;;;;;;;10116327;28;20064;-64
2022/10/08 07:39:41;;;;;;;11.73;10.43;;;;;;;;;;10116261;28;20057;-63
2022/10/08 07:44:35;;;;;;;13.88;10.02;;;;;;;;;;10118247;28;20582;-64
2022/10/08 07:49:29;;;;;;;10.43;8.95;;;;;;;;;;10123858;28;20078;-64
2022/10/08 07:54:23;;;;;;;12.90;9.77;;;;;;;;;;10107973;28;20052;-64
2022/10/08 07:59:17;;;;;;;13.60;8.30;;;;;;;;;;10117201;28;20072;-64
2022/10/08 08:04:10;;;;;;;11.40;8.70;;;;;;;;;;10109836;28;20423;-64
2022/10/08 08:09:04;;;;;;;12.65;9.57;;;;;;;;;;10115940;28;20071;-65
2022/10/08 08:13:58;;;;;;;10.88;8.65;;;;;;;;;;10110858;28;20053;-65
2022/10/08 08:18:54;;;;;;;10.05;9.05;;;;;;;;;;10096993;28;20514;-64
2022/10/08 08:23:50;;;;;;;14.25;10.02;;;;;;;;;;10101330;28;20393;-65
2022/10/08 08:28:44;;;;;;;13.68;9.48;;;;;;;;;;10107847;28;20037;-64
2022/10/08 08:33:38;;;;;;;17.95;9.73;;;;;;;;;;10103306;28;20045;-65
2022/10/08 08:38:34;;;;;;;15.15;9.93;;;;;;;;;;10102723;28;20056;-64
2022/10/08 08:43:27;;;;;;;15.27;10.07;;;;;;;;;;10107497;28;20075;-65
2022/10/08 08:48:22;;;;;;;11.30;10.15;;;;;;;;;;10111806;28;20516;-66
2022/10/08 08:53:16;;;;;;;10.55;9.60;;;;;;;;;;10116601;28;20080;-65
2022/10/08 08:58:25;;;;;;;10.38;9.40;;;;;;;;;;10114798;28;20488;-70
2022/10/08 09:03:29;;;;;;;13.38;10.95;;;;;;;;;;10106172;28;20044;-64
2022/10/08 09:08:33;;;;;;;13.13;10.00;;;;;;;;;;10105681;28;20052;-65
2022/10/08 09:13:31;;;;;;;13.35;12.05;;;;;;;;;;10116195;28;20047;-66
2022/10/08 09:18:24;;;;;;;14.43;12.77;;;;;;;;;;10107711;28;20142;-66
2022/10/08 09:23:21;;;;;;;12.98;11.68;;;;;;;;;;10115986;28;20472;-68
2022/10/08 09:28:38;;;;;;;13.18;11.88;;;;;;;;;;10111192;28;20057;-66
2022/10/08 09:33:31;;;;;;;16.60;11.33;;;;;;;;;;10113468;28;20049;-65
2022/10/08 09:38:35;;;;;;;12.95;11.73;;;;;;;;;;10107220;28;20057;-65
2022/10/08 09:43:29;;;;;;;14.85;13.18;;;;;;;;;;10113815;28;20056;-65
2022/10/08 09:48:27;;;;;;;16.67;13.30;;;;;;;;;;10117637;28;20565;-65
2022/10/08 09:53:21;;;;;;;14.10;12.80;;;;;;;;;;10126481;28;20068;-66
2022/10/08 09:58:17;;;;;;;14.93;13.38;;;;;;;;;;10128369;28;20056;-66
2022/10/08 10:03:16;;;;;;;19.25;13.60;;;;;;;;;;10126604;28;20057;-67
2022/10/08 10:08:44;;;;;;;17.52;12.68;;;;;;;;;;10123105;28;20080;-67
2022/10/08 10:13:39;;;;;;;15.13;13.52;;;;;;;;;;10112426;28;20056;-67
2022/10/08 10:18:46;;;;;;;16.52;12.98;;;;;;;;;;10122017;28;20419;-67
2022/10/08 10:23:52;;;;;;;18.90;13.55;;;;;;;;;;10111686;28;20044;-67
2022/10/08 10:28:56;;;;;;;17.90;12.60;;;;;;;;;;10111327;28;20499;-66
2022/10/08 10:33:53;;;;;;;14.13;12.60;;;;;;;;;;10111352;28;20064;-65
2022/10/08 10:38:54;;;;;;;18.60;13.27;;;;;;;;;;10094915;28;20052;-66
2022/10/08 10:44:01;;;;;;;14.10;12.27;;;;;;;;;;10114150;28;20056;-66
2022/10/08 10:48:55;;;;;;;;;;;;;;;;;;10124045;28;20059;-66
2022/10/08 10:54:13;;;;;;;14.60;12.45;;;;;;;;;;10125951;28;19920;-66
2022/10/08 10:59:24;;;;;;;15.50;13.52;;;;;;;;;;10137236;28;20052;-65
2022/10/08 11:04:43;;;;;;;16.05;14.45;;;;;;;;;;10126998;28;20515;-65
2022/10/08 11:09:58;;;;;;;14.45;13.07;;;;;;;;;;10131316;28;20052;-65
2022/10/08 11:15:13;;;;;;;17.55;13.38;;;;;;;;;;10128008;28;20475;-65
2022/10/08 11:20:09;;;;;;;19.70;14.55;;;;;;;;;;10110996;28;20636;-65
2022/10/08 11:25:11;;;;;;;16.98;13.88;;;;;;;;;;10106474;28;20059;-66
2022/10/08 11:30:13;;;;;;;15.57;13.90;;;;;;;;;;10110432;28;20135;-66
2022/10/08 11:35:15;;;;;;;18.80;13.65;;;;;;;;;;10099015;28;20419;-66
2022/10/08 11:40:22;;;;;;;16.75;15.00;;;;;;;;;;10113542;28;20103;-66
2022/10/08 11:45:21;;;;;;;24.23;15.13;;;;;;;;;;10110139;28;20069;-65
2022/10/08 11:50:22;;;;;;;22.27;15.23;;;;;;;;;;10108680;28;20048;-65
2022/10/08 11:55:38;;;;;;;18.05;14.57;;;;;;;;;;10108691;28;20057;-64
2022/10/08 12:00:44;;;;;;;17.40;14.77;;;;;;;;;;10104325;28;20449;-63
2022/10/08 12:05:43;;;;;;;18.70;16.77;;;;;;;;;;10111135;28;20103;-63
2022/10/08 12:10:42;;;;;;;17.23;13.73;;;;;;;;;;10109118;28;20052;-63
2022/10/08 12:15:39;;;;;;;19.98;17.73;;;;;;;;;;10117783;28;20136;-64
2022/10/08 12:20:33;;;;;;;17.83;15.88;;;;;;;;;;10115221;28;20057;-64
2022/10/08 12:25:32;;;;;;;22.13;17.00;;;;;;;;;;10117569;28;20106;-64
2022/10/08 12:30:52;;;;;;;19.95;18.00;;;;;;;;;;10109609;28;20056;-64
2022/10/08 12:35:55;;;;;;;19.95;17.17;;;;;;;;;;10117255;28;20491;-63
2022/10/08 12:41:22;;;;;;;20.05;17.95;;;;;;;;;;10115816;28;20041;-63
2022/10/08 12:46:24;;;;;;;19.73;17.37;;;;;;;;;;10112896;28;20044;-63
2022/10/08 12:51:20;;;;;;;22.65;17.80;;;;;;;;;;10110024;28;20048;-64
2022/10/08 12:56:34;;;;;;;21.02;18.90;;;;;;;;;;10114718;28;20060;-62
2022/10/08 13:01:28;;;;;;;20.73;18.33;;;;;;;;;;10116971;28;20552;-65
2022/10/08 13:06:27;;;;;;;21.42;19.00;;;;;;;;;;10118425;28;20036;-63
2022/10/08 13:11:27;;;;;;;21.30;18.00;;;;;;;;;;10109035;28;20040;-64
2022/10/08 13:16:22;;;;;;;20.40;17.15;;;;;;;;;;10116845;28;20060;-63
2022/10/08 13:21:44;;;;;;;20.42;17.63;;;;;;;;;;10114515;28;20053;-65
2022/10/08 13:26:44;;;;;;;17.48;15.65;;;;;;;;;;10117684;28;20454;-64
2022/10/08 13:31:49;;;;;;;19.60;17.10;;;;;;;;;;10110658;28;20041;-65
2022/10/08 13:36:48;;;;;;;18.02;15.73;;;;;;;;;;10108624;28;20080;-62
2022/10/08 13:41:50;;;;;;;23.40;13.70;;;;;;;;;;10121675;28;20126;-62
2022/10/08 13:46:46;;;;;;;18.60;14.18;;;;;;;;;;10114031;28;20049;-62
2022/10/08 13:51:41;;;;;;;17.60;13.57;;;;;;;;;;10117309;28;20056;-62
2022/10/08 13:56:36;;;;;;;17.23;14.00;;;;;;;;;;10108262;28;21354;-62
2022/10/08 14:01:32;;;;;;;17.38;15.52;;;;;;;;;;10105069;28;20049;-62
2022/10/08 14:06:26;;;;;;;19.88;14.73;;;;;;;;;;10110027;28;20447;-62
2022/10/08 14:11:21;;;;;;;18.52;16.55;;;;;;;;;;10109434;28;20068;-62
2022/10/08 14:16:14;;;;;;;18.00;12.57;;;;;;;;;;10110606;28;20087;-64
2022/10/08 14:21:11;;;;;;;14.93;10.85;;;;;;;;;;10114466;28;20599;-62
2022/10/08 14:26:05;;;;;;;13.10;11.83;;;;;;;;;;10108172;28;20127;-62
2022/10/08 14:31:00;;;;;;;12.95;11.65;;;;;;;;;;10106979;28;20167;-62
2022/10/08 14:35:54;;;;;;;13.73;12.40;;;;;;;;;;10115717;28;20095;-64
2022/10/08 14:40:48;;;;;;;12.40;11.20;;;;;;;;;;10121322;28;20060;-62
2022/10/08 14:45:42;;;;;;;16.92;13.00;;;;;;;;;;10126456;28;20072;-65
2022/10/08 14:50:36;;;;;;;13.23;11.85;;;;;;;;;;10119457;28;20045;-64
2022/10/08 14:55:31;;;;;;;18.88;12.88;;;;;;;;;;10122147;28;20040;-64
2022/10/08 15:00:45;;;;;;;11.98;10.70;;;;;;;;;;10110619;28;20110;-65
2022/10/08 15:05:39;;;;;;;14.57;12.55;;;;;;;;;;10124289;28;20476;-62
2022/10/08 15:10:34;;;;;;;15.50;11.30;;;;;;;;;;10110013;28;20049;-64
2022/10/08 15:15:27;;;;;;;17.08;10.50;;;;;;;;;;10109727;28;20106;-65
2022/10/08 15:20:21;;;;;;;9.77;8.88;;;;;;;;;;10102440;28;20069;-65
2022/10/08 15:25:16;;;;;;;18.60;9.25;;;;;;;;;;10095706;28;20045;-64
2022/10/08 15:30:13;;;;;;;14.68;9.68;;;;;;;;;;10105628;28;20099;-65
2022/10/08 15:35:07;;;;;;;11.82;8.98;;;;;;;;;;10106023;28;20049;-65
2022/10/08 15:40:01;;;;;;;9.57;8.70;;;;;;;;;;10105853;28;20102;-65
2022/10/08 15:44:55;;;;;;;10.23;9.20;;;;;;;;;;10103057;28;20136;-62
2022/10/08 15:49:49;;;;;;;15.90;9.25;;;;;;;;;;10106093;28;20481;-63
2022/10/08 15:54:43;;;;;;;10.95;8.52;;;;;;;;;;10105176;28;20068;-62
2022/10/08 15:59:37;;;;;;;14.50;7.75;;;;;;;;;;10093297;28;20459;-63
2022/10/08 16:04:31;;;;;;;11.50;7.57;;;;;;;;;;10101286;28;20045;-63
2022/10/08 16:09:24;;;;;;;11.38;8.52;;;;;;;;;;10100410;28;20049;-62
2022/10/08 16:14:21;;;;;;;10.85;8.13;;;;;;;;;;10095213;28;20055;-63
2022/10/08 16:19:17;;;;;;;10.60;7.97;;;;;;;;;;10101566;28;20072;-62
2022/10/08 16:24:10;;;;;;;9.05;8.13;;;;;;;;;;10096654;28;20053;-63
2022/10/08 16:29:06;;;;;;;15.15;8.60;;;;;;;;;;10101515;28;20049;-63
2022/10/08 16:34:02;;;;;;;9.15;8.20;;;;;;;;;;10097108;28;20495;-63
2022/10/08 16:38:57;;;;;;;11.40;7.95;;;;;;;;;;10100823;28;20136;-62
2022/10/08 16:43:54;;;;;;;16.92;9.85;;;;;;;;;;10101970;28;20543;-63
2022/10/08 16:49:12;;;;;;;17.90;9.10;;;;;;;;;;10104039;28;20048;-63
2022/10/08 16:54:14;;;;;;;10.27;9.18;;;;;;;;;;10098789;28;20431;-63
2022/10/08 16:59:17;;;;;;;16.67;12.15;;;;;;;;;;10102322;28;20057;-63
2022/10/08 17:04:11;;;;;;;14.70;9.77;;;;;;;;;;10097002;28;20052;-63
2022/10/08 17:09:06;;;;;;;11.32;8.43;;;;;;;;;;10100729;28;20060;-69
2022/10/08 17:14:00;;;;;;;13.07;9.48;;;;;;;;;;10099855;28;20105;-64
2022/10/08 17:18:55;;;;;;;20.58;10.50;;;;;;;;;;10100979;28;20543;-63
2022/10/08 17:23:52;;;;;;;29.88;13.40;;;;;;;;;;10100016;28;20512;-64
2022/10/08 17:28:47;;;;;;;22.23;12.85;;;;;;;;;;10101515;28;20068;-71
2022/10/08 17:33:42;;;;;;;18.52;13.05;;;;;;;;;;10098632;28;20059;-64
2022/10/08 17:38:38;;;;;;;13.82;12.43;;;;;;;;;;10094513;28;20489;-63
2022/10/08 17:43:31;;;;;;;19.98;12.90;;;;;;;;;;10092654;28;20076;-63
2022/10/08 17:48:26;;;;;;;13.35;11.63;;;;;;;;;;10090034;28;20049;-63
2022/10/08 17:53:20;;;;;;;18.30;13.20;;;;;;;;;;10083325;28;20045;-63
2022/10/08 17:58:14;;;;;;;18.23;14.35;;;;;;;;;;10086188;28;20061;-64
2022/10/08 18:03:09;;;;;;;15.30;11.82;;;;;;;;;;10101058;28;20053;-63
2022/10/08 18:08:02;;;;;;;16.67;12.63;;;;;;;;;;10098929;28;20076;-66
2022/10/08 18:12:56;;;;;;;14.00;12.55;;;;;;;;;;10106204;28;20481;-62
2022/10/08 18:17:50;;;;;;;13.80;12.27;;;;;;;;;;10105866;28;20458;-63
2022/10/08 18:22:45;;;;;;;15.15;12.20;;;;;;;;;;10107317;28;20051;-62
2022/10/08 18:27:39;;;;;;;14.00;11.77;;;;;;;;;;10101048;28;20056;-62
2022/10/08 18:32:33;;;;;;;20.80;12.85;;;;;;;;;;10103517;28;20045;-62
2022/10/08 18:37:29;;;;;;;13.55;11.82;;;;;;;;;;10107974;28;20949;-62
2022/10/08 18:42:25;;;;;;;13.82;12.25;;;;;;;;;;10103940;28;20045;-63
2022/10/08 18:47:21;;;;;;;15.20;13.63;;;;;;;;;;10102291;28;20052;-63
2022/10/08 18:52:17;;;;;;;15.83;13.10;;;;;;;;;;10104424;28;20040;-62
2022/10/08 18:57:13;;;;;;;19.75;13.35;;;;;;;;;;10103998;28;20072;-62
2022/10/08 19:02:08;;;;;;;16.35;13.10;;;;;;;;;;10103663;28;20057;-63
2022/10/08 19:07:02;;;;;;;18.50;14.75;;;;;;;;;;10088578;28;20091;-63
2022/10/08 19:11:56;;;;;;;18.45;13.65;;;;;;;;;;10087901;28;20057;-63
2022/10/08 19:16:50;;;;;;;16.95;15.15;;;;;;;;;;10100107;28;20052;-63
2022/10/08 19:21:44;;;;;;;18.48;16.50;;;;;;;;;;10109446;28;20095;-62
2022/10/08 19:26:38;;;;;;;16.52;14.80;;;;;;;;;;10106280;28;20049;-62
2022/10/08 19:31:34;;;;;;;19.00;17.10;;;;;;;;;;10109630;28;20124;-62
2022/10/08 19:36:30;;;;;;;18.83;15.45;;;;;;;;;;10106756;28;20438;-62
2022/10/08 19:41:24;;;;;;;23.65;17.25;;;;;;;;;;10113576;28;20132;-66
2022/10/08 19:46:19;;;;;;;20.77;17.73;;;;;;;;;;10119582;28;20049;-68
2022/10/08 19:51:13;;;;;;;18.92;17.08;;;;;;;;;;10116525;28;20572;-68
2022/10/08 19:56:08;;;;;;;19.67;17.55;;;;;;;;;;10116546;28;20136;-69
2022/10/08 20:01:04;;;;;;;18.85;16.92;;;;;;;;;;10119702;28;20132;-69
2022/10/08 20:06:01;;;;;;;19.92;17.85;;;;;;;;;;10119001;28;20053;-69
2022/10/08 20:10:58;;;;;;;19.90;17.85;;;;;;;;;;10113267;28;20071;-69
2022/10/08 20:15:51;;;;;;;20.00;17.40;;;;;;;;;;10113893;28;20072;-69
2022/10/08 20:20:45;;;;;;;26.17;17.55;;;;;;;;;;10111445;28;20053;-69
2022/10/08 20:25:41;;;;;;;19.52;15.95;;;;;;;;;;10109799;28;20152;-67
2022/10/08 20:30:35;;;;;;;18.58;16.73;;;;;;;;;;10099053;28;20437;-69
2022/10/08 20:35:29;;;;;;;17.48;15.93;;;;;;;;;;10112441;28;20126;-74
2022/10/08 20:40:24;;;;;;;21.17;17.63;;;;;;;;;;10117354;28;20048;-73
2022/10/08 20:45:17;;;;;;;18.35;16.40;;;;;;;;;;10117297;28;20048;-73
2022/10/08 20:50:12;;;;;;;22.30;17.08;;;;;;;;;;10107208;28;20151;-73
2022/10/08 20:55:09;;;;;;;22.27;18.77;;;;;;;;;;10106290;28;20080;-74
2022/10/08 21:00:03;;;;;;;20.15;17.10;;;;;;;;;;10109922;28;20052;-77
2022/10/08 21:04:57;;;;;;;20.98;18.85;;;;;;;;;;10106565;28;20076;-75
2022/10/08 21:09:52;;;;;;;22.30;17.27;;;;;;;;;;10104539;28;20128;-74
2022/10/08 21:14:46;;;;;;;29.40;18.55;;;;;;;;;;10095509;28;20041;-75
2022/10/08 21:19:41;;;;;;;21.65;18.15;;;;;;;;;;10101827;28;20467;-78
2022/10/08 21:24:38;;;;;;;20.90;18.13;;;;;;;;;;10093910;28;20037;-78
2022/10/08 21:29:31;;;;;;;25.70;17.35;;;;;;;;;;10101336;28;20053;-76
2022/10/08 21:34:25;;;;;;;21.70;19.58;;;;;;;;;;10101182;28;20090;-73
2022/10/08 21:39:19;;;;;;;21.50;17.55;;;;;;;;;;10096228;28;20053;-75
2022/10/08 21:44:13;;;;;;;28.40;20.33;;;;;;;;;;10094578;28;20404;-75
2022/10/08 21:49:11;;;;;;;21.90;18.85;;;;;;;;;;10105053;28;20053;-75
2022/10/08 21:54:06;;;;;;;19.67;17.20;;;;;;;;;;10106151;28;20041;-74
2022/10/08 21:59:02;;;;;;;19.23;17.33;;;;;;;;;;10101960;28;20057;-74
2022/10/08 22:03:58;;;;;;;19.25;16.35;;;;;;;;;;10100939;28;20053;-75
2022/10/08 22:08:52;;;;;;;18.60;16.67;;;;;;;;;;10108413;28;20067;-76
2022/10/08 22:13:45;;;;;;;20.30;16.67;;;;;;;;;;10108367;28;20549;-75
2022/10/08 22:18:39;;;;;;;20.17;16.95;;;;;;;;;;10103968;28;20060;-75
2022/10/08 22:23:35;;;;;;;22.75;17.38;;;;;;;;;;10106938;28;20083;-75
2022/10/08 22:28:28;;;;;;;21.40;17.23;;;;;;;;;;10105753;28;20069;-75
2022/10/08 22:33:22;;;;;;;19.65;16.88;;;;;;;;;;10106432;28;20392;-75
2022/10/08 22:38:16;;;;;;;20.13;17.63;;;;;;;;;;10109844;28;20393;-75
2022/10/08 22:43:10;;;;;;;24.52;15.35;;;;;;;;;;10108786;28;20053;-75
2022/10/08 22:48:04;;;;;;;28.45;18.70;;;;;;;;;;10109836;28;20496;-75
2022/10/08 22:52:57;;;;;;;20.83;18.48;;;;;;;;;;10099777;28;20136;-75
2022/10/08 22:57:51;;;;;;;22.83;18.42;;;;;;;;;;10103558;28;20056;-75
2022/10/08 23:02:45;;;;;;;18.77;16.92;;;;;;;;;;10105476;28;20119;-75
2022/10/08 23:07:40;;;;;;;23.27;19.67;;;;;;;;;;10106715;28;20415;-75
2022/10/08 23:12:33;;;;;;;19.13;16.08;;;;;;;;;;10102027;28;20045;-75
2022/10/08 23:17:27;;;;;;;22.35;16.60;;;;;;;;;;10107013;28;20067;-75
2022/10/08 23:22:21;;;;;;;19.55;16.98;;;;;;;;;;10110929;28;20428;-75
2022/10/08 23:27:15;;;;;;;20.30;17.52;;;;;;;;;;10106774;28;20048;-76
2022/10/08 23:32:09;;;;;;;18.13;16.33;;;;;;;;;;10101858;28;20099;-75
2022/10/08 23:37:04;;;;;;;18.58;16.42;;;;;;;;;;10100611;28;20110;-75
2022/10/08 23:41:57;;;;;;;18.45;16.05;;;;;;;;;;10103377;28;20053;-74
2022/10/08 23:46:52;;;;;;;24.20;18.30;;;;;;;;;;10101679;28;20057;-74
2022/10/08 23:51:45;;;;;;;21.77;18.00;;;;;;;;;;10109395;28;20057;-73
2022/10/08 23:56:40;;;;;;;21.48;19.27;;;;;;;;;;10106978;28;20053;-75
